createdAt,value
2018-06-28T00:00:42.494Z,92569.52
2018-06-28T00:03:10.582Z,92565.74
2018-06-28T00:05:38.675Z,92563.33
2018-06-28T00:08:06.801Z,92561.27
2018-06-28T00:10:34.804Z,92566.98
2018-06-28T00:13:02.883Z,92558.33
2018-06-28T00:15:30.981Z,92545.95
2018-06-28T00:17:59.018Z,92545.67
2018-06-28T00:20:27.139Z,92538.20
2018-06-28T00:22:55.204Z,92540.80
2018-06-28T00:25:23.320Z,92533.16
2018-06-28T00:27:51.347Z,92528.08
2018-06-28T00:30:19.439Z,92528.21
2018-06-28T00:32:47.409Z,92520.38
2018-06-28T00:35:15.417Z,92513.89
2018-06-28T00:37:43.464Z,92507.75
2018-06-28T00:40:11.613Z,92506.19
2018-06-28T00:42:39.789Z,92497.80
2018-06-28T00:45:08.297Z,92497.38
2018-06-28T00:47:36.430Z,92498.54
2018-06-28T00:50:04.566Z,92499.53
2018-06-28T00:52:32.692Z,92492.09
2018-06-28T00:55:01.882Z,92503.02
2018-06-28T00:57:30.028Z,92500.25
2018-06-28T00:59:58.116Z,92498.67
2018-06-28T01:02:26.202Z,92500.34
2018-06-28T01:04:54.358Z,92501.48
2018-06-28T01:07:22.508Z,92504.58
2018-06-28T01:09:50.617Z,92502.40
2018-06-28T01:12:18.670Z,92506.02
2018-06-28T01:14:46.722Z,92505.83
2018-06-28T01:17:14.766Z,92498.54
2018-06-28T01:19:42.933Z,92490.52
2018-06-28T01:22:11.002Z,92490.09
2018-06-28T01:24:39.080Z,92477.03
2018-06-28T01:27:07.211Z,92477.55
2018-06-28T01:29:36.283Z,92483.06
2018-06-28T01:32:04.374Z,92477.47
2018-06-28T01:34:32.432Z,92486.73
2018-06-28T01:37:00.479Z,92489.09
2018-06-28T01:39:28.457Z,92483.05
2018-06-28T01:42:07.588Z,92478.45
2018-06-28T01:44:35.653Z,92482.82
2018-06-28T01:47:03.812Z,92487.12
2018-06-28T01:49:31.821Z,92477.24
2018-06-28T01:51:59.852Z,92474.14
2018-06-28T01:54:27.819Z,92475.18
2018-06-28T01:56:55.861Z,92475.18
2018-06-28T01:59:23.906Z,92467.02
2018-06-28T02:01:51.922Z,92476.53
2018-06-28T02:04:20.019Z,92472.13
2018-06-28T02:06:48.060Z,92459.07
2018-06-28T02:09:16.134Z,92468.70
2018-06-28T02:11:44.169Z,92474.35
2018-06-28T02:14:12.199Z,92462.25
2018-06-28T02:16:40.224Z,92450.91
2018-06-28T02:19:08.575Z,92450.91
2018-06-28T02:21:36.762Z,92459.45
2018-06-28T02:24:04.867Z,92462.13
2018-06-28T02:26:32.967Z,92463.75
2018-06-28T02:29:01.041Z,92465.05
2018-06-28T02:31:29.091Z,92463.75
2018-06-28T02:33:57.232Z,92464.78
2018-06-28T02:36:25.242Z,92468.97
2018-06-28T02:38:53.277Z,92478.91
2018-06-28T02:41:21.334Z,92483.14
2018-06-28T02:43:49.326Z,92486.25
2018-06-28T02:46:17.497Z,92476.92
2018-06-28T02:48:45.598Z,92472.52
2018-06-28T02:51:13.921Z,92473.81
2018-06-28T02:53:42.097Z,92467.29
2018-06-28T02:56:10.138Z,92469.01
2018-06-28T02:58:38.274Z,92471.27
2018-06-28T03:01:06.546Z,92466.66
2018-06-28T03:03:34.619Z,92469.01
2018-06-28T03:06:02.670Z,92470.39
2018-06-28T03:08:30.814Z,92472.16
2018-06-28T03:10:58.868Z,92467.70
2018-06-28T03:13:26.943Z,92465.00
2018-06-28T03:15:55.089Z,92469.09
2018-06-28T03:18:23.153Z,92464.19
2018-06-28T03:20:51.152Z,92468.20
2018-06-28T03:23:19.286Z,92461.58
2018-06-28T03:25:47.279Z,92465.55
2018-06-28T03:28:15.302Z,92461.80
2018-06-28T03:30:43.484Z,92459.35
2018-06-28T03:33:11.516Z,92460.61
2018-06-28T03:35:39.601Z,92465.20
2018-06-28T03:38:07.690Z,92464.25
2018-06-28T03:40:35.754Z,92464.92
2018-06-28T03:43:03.889Z,92466.86
2018-06-28T03:45:31.877Z,92468.52
2018-06-28T03:47:59.917Z,92464.88
2018-06-28T03:50:27.929Z,92457.26
2018-06-28T03:52:56.080Z,92459.02
2018-06-28T03:55:26.965Z,92459.38
2018-06-28T03:57:55.493Z,92461.31
2018-06-28T04:00:23.524Z,92461.72
2018-06-28T04:02:51.524Z,92468.70
2018-06-28T04:05:19.609Z,92461.72
2018-06-28T04:07:47.708Z,92458.53
2018-06-28T04:10:15.787Z,92457.72
2018-06-28T04:12:43.816Z,92462.72
2018-06-28T04:15:12.135Z,92467.76
2018-06-28T04:17:40.324Z,92457.17
2018-06-28T04:20:08.547Z,92456.20
2018-06-28T04:22:36.675Z,92451.92
2018-06-28T04:25:05.108Z,92448.33
2018-06-28T04:27:33.197Z,92456.22
2018-06-28T04:30:01.334Z,92452.79
2018-06-28T04:32:29.429Z,92454.31
2018-06-28T04:34:57.479Z,92452.47
2018-06-28T04:37:25.560Z,92446.89
2018-06-28T04:39:54.313Z,92447.52
2018-06-28T04:42:22.758Z,92453.28
2018-06-28T04:44:50.849Z,92449.64
2018-06-28T04:47:19.084Z,92455.67
2018-06-28T04:49:47.295Z,92451.53
2018-06-28T04:52:15.587Z,92446.67
2018-06-28T04:54:43.846Z,92452.75
2018-06-28T04:57:12.460Z,92454.91
2018-06-28T04:59:41.586Z,92447.80
2018-06-28T05:02:09.747Z,92451.95
2018-06-28T05:04:38.178Z,92450.95
2018-06-28T05:07:06.548Z,92456.63
2018-06-28T05:09:35.628Z,92455.22
2018-06-28T05:12:04.546Z,92454.50
2018-06-28T05:14:33.139Z,92448.72
2018-06-28T05:17:01.939Z,92444.70
2018-06-28T05:19:30.605Z,92440.88
2018-06-28T05:21:59.092Z,92435.73
2018-06-28T05:24:27.795Z,92439.16
2018-06-28T05:26:56.498Z,92446.05
2018-06-28T05:29:24.862Z,92445.45
2018-06-28T05:31:53.089Z,92442.20
2018-06-28T05:34:21.213Z,92442.05
2018-06-28T05:36:49.383Z,92440.08
2018-06-28T05:39:17.683Z,92439.05
2018-06-28T05:41:46.698Z,92430.71
2018-06-28T05:44:15.024Z,92429.23
2018-06-28T05:46:43.316Z,92429.27
2018-06-28T05:49:11.747Z,92429.08
2018-06-28T05:51:40.057Z,92432.02
2018-06-28T05:54:08.193Z,92443.33
2018-06-28T05:56:36.414Z,92445.27
2018-06-28T05:59:04.613Z,92440.04
2018-06-28T06:01:32.945Z,92441.94
2018-06-28T06:04:01.369Z,92445.94
2018-06-28T06:06:29.780Z,92445.63
2018-06-28T06:08:58.002Z,92448.27
2018-06-28T06:11:26.314Z,92449.26
2018-06-28T06:13:54.696Z,92451.86
2018-06-28T06:16:23.096Z,92454.86
2018-06-28T06:18:51.408Z,92456.89
2018-06-28T06:21:19.796Z,92447.97
2018-06-28T06:23:48.080Z,92444.31
2018-06-28T06:26:16.386Z,92439.43
2018-06-28T06:28:44.951Z,92452.70
2018-06-28T06:31:13.337Z,92450.33
2018-06-28T06:33:41.904Z,92450.37
2018-06-28T06:36:10.479Z,92447.63
2018-06-28T06:38:39.622Z,92453.67
2018-06-28T06:41:08.254Z,92458.27
2018-06-28T06:43:36.879Z,92459.45
2018-06-28T06:46:05.785Z,92465.15
2018-06-28T06:48:34.454Z,92467.95
2018-06-28T06:51:03.178Z,92477.20
2018-06-28T06:53:32.081Z,92477.80
2018-06-28T06:56:00.721Z,92477.59
2018-06-28T06:58:29.561Z,92478.45
2018-06-28T07:00:58.188Z,92482.80
2018-06-28T07:03:26.395Z,92476.25
2018-06-28T07:05:54.701Z,92480.72
2018-06-28T07:08:23.191Z,92478.79
2018-06-28T07:10:51.497Z,92478.75
2018-06-28T07:13:19.764Z,92482.25
2018-06-28T07:15:48.207Z,92490.93
2018-06-28T07:18:16.526Z,92490.78
2018-06-28T07:20:44.792Z,92486.98
2018-06-28T07:23:13.243Z,92486.15
2018-06-28T07:25:41.851Z,92492.83
2018-06-28T07:28:10.389Z,92499.90
2018-06-28T07:30:39.157Z,92499.60
2018-06-28T07:33:07.973Z,92502.09
2018-06-28T07:35:36.206Z,92498.41
2018-06-28T07:38:04.432Z,92510.84
2018-06-28T07:40:32.712Z,92502.77
2018-06-28T07:43:01.042Z,92504.07
2018-06-28T07:45:29.280Z,92511.38
2018-06-28T07:47:57.449Z,92505.33
2018-06-28T07:50:25.649Z,92505.85
2018-06-28T07:52:54.102Z,92506.81
2018-06-28T07:55:22.486Z,92498.76
2018-06-28T07:57:51.080Z,92504.31
2018-06-28T08:00:19.822Z,92500.41
2018-06-28T08:02:48.370Z,92502.34
2018-06-28T08:05:17.179Z,92502.07
2018-06-28T08:07:45.784Z,92501.26
2018-06-28T08:10:14.317Z,92505.36
2018-06-28T08:12:42.614Z,92498.76
2018-06-28T08:15:11.019Z,92498.02
2018-06-28T08:17:39.664Z,92499.55
2018-06-28T08:20:08.569Z,92498.48
2018-06-28T08:22:37.033Z,92507.84
2018-06-28T08:25:06.143Z,92507.84
2018-06-28T08:27:34.944Z,92508.20
2018-06-28T08:30:03.613Z,92502.02
2018-06-28T08:32:32.082Z,92505.55
2018-06-28T08:35:00.830Z,92509.48
2018-06-28T08:37:29.580Z,92510.83
2018-06-28T08:39:58.324Z,92513.20
2018-06-28T08:42:27.006Z,92517.12
2018-06-28T08:44:55.625Z,92513.50
2018-06-28T08:47:24.535Z,92515.98
2018-06-28T08:49:53.653Z,92517.51
2018-06-28T08:52:22.615Z,92518.69
2018-06-28T08:54:51.131Z,92521.81
2018-06-28T08:57:19.714Z,92522.80
2018-06-28T08:59:48.369Z,92528.63
2018-06-28T09:02:17.317Z,92530.39
2018-06-28T09:04:46.105Z,92528.98
2018-06-28T09:07:14.815Z,92530.41
2018-06-28T09:09:43.729Z,92528.19
2018-06-28T09:12:12.278Z,92523.77
2018-06-28T09:14:41.143Z,92535.16
2018-06-28T09:17:09.668Z,92535.28
2018-06-28T09:19:38.298Z,92529.02
2018-06-28T09:22:10.485Z,92534.45
2018-06-28T09:24:38.943Z,92533.69
2018-06-28T09:27:07.597Z,92534.21
2018-06-28T09:29:36.210Z,92535.91
2018-06-28T09:32:04.993Z,92536.38
2018-06-28T09:34:33.701Z,92540.31
2018-06-28T09:37:01.987Z,92535.38
2018-06-28T09:39:30.628Z,92539.66
2018-06-28T09:41:59.104Z,92535.06
2018-06-28T09:44:28.023Z,92542.44
2018-06-28T09:46:56.348Z,92535.83
2018-06-28T09:49:24.542Z,92543.56
2018-06-28T09:51:52.673Z,92541.08
2018-06-28T09:54:20.860Z,92536.08
2018-06-28T09:56:48.986Z,92539.60
2018-06-28T09:59:17.133Z,92532.37
2018-06-28T10:01:45.279Z,92534.51
2018-06-28T10:04:13.546Z,92537.74
2018-06-28T10:06:41.859Z,92537.24
2018-06-28T10:09:10.232Z,92540.52
2018-06-28T10:11:38.563Z,92542.13
2018-06-28T10:14:07.234Z,92543.14
2018-06-28T10:16:35.582Z,92553.96
2018-06-28T10:19:03.780Z,92547.90
2018-06-28T10:21:32.012Z,92548.44
2018-06-28T10:24:00.261Z,92545.20
2018-06-28T10:26:28.475Z,92547.03
2018-06-28T10:28:56.670Z,92541.63
2018-06-28T10:31:24.963Z,92539.81
2018-06-28T10:33:53.144Z,92538.03
2018-06-28T10:36:21.502Z,92529.98
2018-06-28T10:38:49.800Z,92533.11
2018-06-28T10:41:18.034Z,92532.31
2018-06-28T10:43:46.249Z,92530.98
2018-06-28T10:46:14.434Z,92527.68
2018-06-28T10:48:42.711Z,92532.47
2018-06-28T10:51:11.155Z,92530.16
2018-06-28T10:53:39.700Z,92530.00
2018-06-28T10:56:08.172Z,92527.22
2018-06-28T10:58:36.952Z,92526.54
2018-06-28T11:01:05.483Z,92534.92
2018-06-28T11:03:34.081Z,92530.49
2018-06-28T11:06:02.697Z,92531.47
2018-06-28T11:08:31.195Z,92530.16
2018-06-28T11:10:59.357Z,92529.50
2018-06-28T11:13:27.596Z,92532.40
2018-06-28T11:15:56.157Z,92531.27
2018-06-28T11:18:24.650Z,92525.52
2018-06-28T11:20:52.977Z,92528.49
2018-06-28T11:23:21.645Z,92525.23
2018-06-28T11:25:50.179Z,92518.17
2018-06-28T11:28:18.736Z,92520.13
2018-06-28T11:30:47.208Z,92523.91
2018-06-28T11:33:15.632Z,92520.30
2018-06-28T11:35:44.048Z,92508.98
2018-06-28T11:38:12.949Z,92507.48
2018-06-28T11:40:41.575Z,92510.30
2018-06-28T11:43:10.125Z,92503.70
2018-06-28T11:45:38.637Z,92505.00
2018-06-28T11:48:07.053Z,92502.22
2018-06-28T11:50:35.666Z,92497.77
2018-06-28T11:53:04.048Z,92498.09
2018-06-28T11:55:32.630Z,92499.61
2018-06-28T11:58:01.114Z,92500.25
2018-06-28T12:00:29.340Z,92504.53
2018-06-28T12:02:57.737Z,92510.78
2018-06-28T12:05:26.153Z,92515.85
2018-06-28T12:07:54.779Z,92522.59
2018-06-28T12:10:22.997Z,92523.76
2018-06-28T12:12:51.834Z,92528.86
2018-06-28T12:15:21.027Z,92523.89
2018-06-28T12:17:49.420Z,92522.59
2018-06-28T12:20:17.803Z,92525.73
2018-06-28T12:22:46.105Z,92530.47
2018-06-28T12:25:14.715Z,92524.86
2018-06-28T12:27:43.101Z,92526.11
2018-06-28T12:30:11.880Z,92528.20
2018-06-28T12:32:40.665Z,92530.34
2018-06-28T12:35:09.267Z,92526.91
2018-06-28T12:37:37.801Z,92528.44
2018-06-28T12:40:06.432Z,92524.63
2018-06-28T12:42:35.005Z,92526.80
2018-06-28T12:45:03.342Z,92529.59
2018-06-28T12:48:15.253Z,92534.50
2018-06-28T12:50:43.551Z,92537.72
2018-06-28T12:53:12.888Z,92537.98
2018-06-28T12:56:44.607Z,92535.03
2018-06-28T12:59:14.304Z,92531.70
2018-06-28T13:01:42.789Z,92531.30
2018-06-28T13:04:10.976Z,92528.29
2018-06-28T13:06:39.344Z,92531.02
2018-06-28T13:09:10.292Z,92536.30
2018-06-28T13:11:38.873Z,92538.80
2018-06-28T13:14:07.670Z,92538.87
2018-06-28T13:16:36.097Z,92537.87
2018-06-28T13:19:04.460Z,92545.03
2018-06-28T13:21:32.608Z,92541.61
2018-06-28T13:24:00.990Z,92549.34
2018-06-28T13:26:29.276Z,92543.70
2018-06-28T13:28:57.490Z,92549.15
2018-06-28T13:31:25.802Z,92543.02
2018-06-28T13:33:54.010Z,92543.30
2018-06-28T13:36:22.072Z,92548.87
2018-06-28T13:38:50.320Z,92551.28
2018-06-28T13:41:19.356Z,92554.20
2018-06-28T13:43:47.347Z,92554.22
2018-06-28T13:46:15.625Z,92553.20
2018-06-28T13:48:43.847Z,92552.59
2018-06-28T13:51:12.037Z,92551.31
2018-06-28T13:53:40.156Z,92553.42
2018-06-28T13:56:08.326Z,92554.97
2018-06-28T13:58:36.537Z,92562.38
2018-06-28T14:01:04.740Z,92557.42
2018-06-28T14:03:33.089Z,92547.91
2018-06-28T14:06:01.454Z,92544.29
2018-06-28T14:08:29.922Z,92544.13
2018-06-28T14:10:58.125Z,92543.31
2018-06-28T14:13:26.302Z,92549.22
2018-06-28T14:15:54.425Z,92547.59
2018-06-28T14:18:22.692Z,92549.70
2018-06-28T14:20:50.798Z,92552.16
2018-06-28T14:23:19.225Z,92550.52
2018-06-28T14:25:47.574Z,92543.64
2018-06-28T14:28:15.677Z,92542.33
2018-06-28T14:30:43.905Z,92539.83
2018-06-28T14:33:12.199Z,92540.19
2018-06-28T14:35:40.415Z,92541.33
2018-06-28T14:38:08.738Z,92547.23
2018-06-28T14:40:36.969Z,92545.11
2018-06-28T14:43:05.838Z,92544.94
2018-06-28T14:45:34.774Z,92544.11
2018-06-28T14:48:02.951Z,92546.39
2018-06-28T14:50:31.266Z,92547.85
2018-06-28T14:52:59.523Z,92544.92
2018-06-28T14:55:28.562Z,92552.53
2018-06-28T14:57:56.959Z,92556.63
2018-06-28T15:00:25.134Z,92560.70
2018-06-28T15:02:53.397Z,92564.49
2018-06-28T15:05:21.789Z,92560.21
2018-06-28T15:07:50.116Z,92560.36
2018-06-28T15:10:18.507Z,92562.30
2018-06-28T15:12:46.671Z,92562.95
2018-06-28T15:15:15.114Z,92561.28
2018-06-28T15:17:43.460Z,92561.13
2018-06-28T15:20:11.931Z,92563.55
2018-06-28T15:22:40.290Z,92562.34
2018-06-28T15:25:09.066Z,92562.61
2018-06-28T15:27:37.526Z,92571.44
2018-06-28T15:30:05.991Z,92575.20
2018-06-28T15:32:34.626Z,92570.27
2018-06-28T15:35:03.198Z,92574.53
2018-06-28T15:37:31.569Z,92571.43
2018-06-28T15:39:59.819Z,92577.97
2018-06-28T15:42:28.237Z,92578.64
2018-06-28T15:44:56.571Z,92577.97
2018-06-28T15:47:24.842Z,92580.22
2018-06-28T15:49:53.194Z,92573.65
2018-06-28T15:52:21.470Z,92575.63
2018-06-28T15:54:49.978Z,92573.23
2018-06-28T15:57:18.338Z,92571.42
2018-06-28T15:59:46.825Z,92574.00
2018-06-28T16:02:15.655Z,92581.70
2018-06-28T16:04:43.963Z,92582.39
2018-06-28T16:07:13.006Z,92579.98
2018-06-28T16:09:41.276Z,92582.75
2018-06-28T16:12:09.902Z,92571.95
2018-06-28T16:14:38.682Z,92576.61
2018-06-28T16:17:07.350Z,92576.23
2018-06-28T16:19:35.736Z,92577.78
2018-06-28T16:22:04.278Z,92574.84
2018-06-28T16:24:32.672Z,92579.67
2018-06-28T16:27:00.971Z,92578.13
2018-06-28T16:29:29.245Z,92575.59
2018-06-28T16:31:57.519Z,92571.84
2018-06-28T16:34:25.829Z,92573.27
2018-06-28T16:36:53.987Z,92573.88
2018-06-28T16:39:22.443Z,92576.47
2018-06-28T16:41:50.535Z,92574.31
2018-06-28T16:44:18.694Z,92575.86
2018-06-28T16:46:46.860Z,92574.69
2018-06-28T16:49:14.956Z,92585.34
2018-06-28T16:51:43.207Z,92589.42
2018-06-28T16:54:11.368Z,92583.48
2018-06-28T16:56:39.768Z,92584.23
2018-06-28T16:59:07.977Z,92582.25
2018-06-28T17:01:36.686Z,92581.82
2018-06-28T17:04:04.985Z,92589.33
2018-06-28T17:06:33.146Z,92583.98
2018-06-28T17:09:01.382Z,92586.31
2018-06-28T17:11:29.785Z,92587.30
2018-06-28T17:13:58.031Z,92588.02
2018-06-28T17:16:26.304Z,92581.91
2018-06-28T17:18:54.697Z,92577.20
2018-06-28T17:21:22.998Z,92575.22
2018-06-28T17:23:51.184Z,92577.95
2018-06-28T17:26:19.476Z,92578.99
2018-06-28T17:28:47.943Z,92581.09
2018-06-28T17:31:16.395Z,92585.09
2018-06-28T17:33:45.175Z,92583.22
2018-06-28T17:36:13.516Z,92581.45
2018-06-28T17:38:41.925Z,92576.92
2018-06-28T17:41:10.357Z,92576.86
2018-06-28T17:43:39.196Z,92577.17
2018-06-28T17:46:07.853Z,92579.30
2018-06-28T17:48:37.053Z,92582.97
2018-06-28T17:51:05.738Z,92583.11
2018-06-28T17:53:34.140Z,92587.00
2018-06-28T17:56:02.705Z,92589.30
2018-06-28T17:58:31.280Z,92587.78
2018-06-28T18:00:59.577Z,92588.77
2018-06-28T18:03:27.906Z,92590.49
2018-06-28T18:05:56.471Z,92586.25
2018-06-28T18:08:24.929Z,92588.38
2018-06-28T18:10:53.167Z,92592.39
2018-06-28T18:13:21.396Z,92591.13
2018-06-28T18:15:49.796Z,92595.69
2018-06-28T18:18:18.233Z,92596.00
2018-06-28T18:20:46.638Z,92593.07
2018-06-28T18:23:15.091Z,92595.64
2018-06-28T18:25:43.454Z,92594.97
2018-06-28T18:28:11.832Z,92598.89
2018-06-28T18:30:40.395Z,92601.79
2018-06-28T18:33:08.975Z,92597.05
2018-06-28T18:35:37.367Z,92599.66
2018-06-28T18:38:05.923Z,92600.66
2018-06-28T18:40:34.236Z,92593.94
2018-06-28T18:43:02.542Z,92599.66
2018-06-28T18:45:30.844Z,92600.84
2018-06-28T18:47:59.108Z,92600.66
2018-06-28T18:50:27.606Z,92608.82
2018-06-28T18:52:56.202Z,92615.91
2018-06-28T18:55:24.634Z,92620.81
2018-06-28T18:57:52.940Z,92620.81
2018-06-28T19:00:21.463Z,92620.45
2018-06-28T19:02:49.992Z,92624.38
2018-06-28T19:05:18.129Z,92623.08
2018-06-28T19:07:46.272Z,92622.94
2018-06-28T19:10:19.775Z,92627.27
2018-06-28T19:12:48.152Z,92621.86
2018-06-28T19:15:21.768Z,92628.27
2018-06-28T19:17:50.018Z,92632.51
2018-06-28T19:20:18.204Z,92635.48
2018-06-28T19:22:51.768Z,92641.39
2018-06-28T19:25:20.001Z,92633.89
2018-06-28T19:27:48.072Z,92644.01
2018-06-28T19:30:21.722Z,92644.64
2018-06-28T19:32:50.083Z,92639.05
2018-06-28T19:35:18.276Z,92638.23
2018-06-28T19:37:48.617Z,92638.23
2018-06-28T19:40:22.302Z,92640.22
2018-06-28T19:42:55.995Z,92637.11
2018-06-28T19:45:24.670Z,92640.71
2018-06-28T19:47:53.243Z,92642.97
2018-06-28T19:50:26.984Z,92641.66
2018-06-28T19:52:59.461Z,92648.02
2018-06-28T19:55:27.552Z,92640.53
2018-06-28T19:57:55.734Z,92648.02
2018-06-28T20:00:29.421Z,92646.85
2018-06-28T20:03:02.948Z,92646.53
2018-06-28T20:05:31.186Z,92649.61
2018-06-28T20:07:59.306Z,92652.72
2018-06-28T20:10:27.376Z,92658.58
2018-06-28T20:13:00.899Z,92650.38
2018-06-28T20:15:45.798Z,92645.14
2018-06-28T20:18:19.679Z,92658.22
2018-06-28T20:20:48.185Z,92648.22
2018-06-28T20:23:16.444Z,92657.68
2018-06-28T20:25:44.629Z,92659.80
2018-06-28T20:28:18.183Z,92646.51
2018-06-28T20:30:51.760Z,92649.61
2018-06-28T20:33:25.388Z,92655.61
2018-06-28T20:35:53.613Z,92659.70
2018-06-28T20:38:21.792Z,92658.86
2018-06-28T20:40:50.324Z,92658.31
2018-06-28T20:43:18.795Z,92666.65
2018-06-28T20:45:46.863Z,92667.28
2018-06-28T20:48:15.068Z,92670.84
2018-06-28T20:50:43.334Z,92675.61
2018-06-28T20:53:11.571Z,92675.61
2018-06-28T20:55:39.780Z,92675.75
2018-06-28T20:58:07.988Z,92675.13
2018-06-28T21:00:36.224Z,92676.43
2018-06-28T21:03:05.773Z,92674.63
2018-06-28T21:05:34.005Z,92672.02
2018-06-28T21:08:02.363Z,92673.63
2018-06-28T21:10:30.581Z,92668.53
2018-06-28T21:12:58.925Z,92665.78
2018-06-28T21:15:27.131Z,92667.22
2018-06-28T21:17:55.243Z,92669.30
2018-06-28T21:20:23.471Z,92671.77
2018-06-28T21:22:51.630Z,92667.91
2018-06-28T21:25:19.822Z,92663.58
2018-06-28T21:27:48.023Z,92667.17
2018-06-28T21:30:16.246Z,92667.63
2018-06-28T21:32:44.378Z,92671.91
2018-06-28T21:35:12.436Z,92664.20
2018-06-28T21:37:40.830Z,92667.98
2018-06-28T21:40:08.873Z,92667.93
2018-06-28T21:42:37.239Z,92666.63
2018-06-28T21:45:05.461Z,92668.61
2018-06-28T21:47:33.645Z,92669.73
2018-06-28T21:50:01.874Z,92666.33
2018-06-28T21:52:30.123Z,92666.48
2018-06-28T21:54:58.329Z,92665.38
2018-06-28T21:57:26.575Z,92660.63
2018-06-28T21:59:54.660Z,92654.50
2018-06-28T22:02:22.815Z,92650.31
2018-06-28T22:04:50.969Z,92649.77
2018-06-28T22:07:19.080Z,92646.11
2018-06-28T22:09:47.099Z,92648.73
2018-06-28T22:12:15.203Z,92638.77
2018-06-28T22:14:43.257Z,92644.07
2018-06-28T22:17:11.398Z,92634.52
2018-06-28T22:19:39.538Z,92638.89
2018-06-28T22:22:07.534Z,92643.80
2018-06-28T22:24:35.689Z,92647.09
2018-06-28T22:27:03.764Z,92646.55
2018-06-28T22:29:31.840Z,92645.52
2018-06-28T22:31:59.927Z,92648.97
2018-06-28T22:34:27.971Z,92649.44
2018-06-28T22:36:56.032Z,92643.88
2018-06-28T22:39:24.099Z,92645.25
2018-06-28T22:41:52.174Z,92638.70
2018-06-28T22:44:20.342Z,92650.74
2018-06-28T22:46:48.472Z,92643.26
2018-06-28T22:49:16.611Z,92642.90
2018-06-28T22:51:44.795Z,92646.00
2018-06-28T22:54:12.935Z,92646.08
2018-06-28T22:56:41.001Z,92646.00
2018-06-28T22:59:09.095Z,92648.07
2018-06-28T23:01:37.243Z,92644.78
2018-06-28T23:04:05.398Z,92642.98
2018-06-28T23:06:33.421Z,92642.79
2018-06-28T23:09:01.568Z,92645.81
2018-06-28T23:11:29.665Z,92638.59
2018-06-28T23:13:57.694Z,92640.86
2018-06-28T23:16:25.731Z,92637.42
2018-06-28T23:18:53.852Z,92635.30
2018-06-28T23:21:21.946Z,92641.21
2018-06-28T23:23:49.969Z,92640.72
2018-06-28T23:26:18.100Z,92639.23
2018-06-28T23:28:46.218Z,92641.84
2018-06-28T23:31:14.217Z,92635.30
2018-06-28T23:33:42.144Z,92639.69
2018-06-28T23:36:10.209Z,92633.45
2018-06-28T23:38:38.251Z,92633.45
2018-06-28T23:41:06.394Z,92633.50
2018-06-28T23:43:34.440Z,92637.20
2018-06-28T23:46:02.507Z,92634.45
2018-06-28T23:48:30.509Z,92626.75
2018-06-28T23:50:58.701Z,92627.73
2018-06-28T23:53:26.756Z,92622.14
2018-06-28T23:55:54.800Z,92624.13
2018-06-28T23:58:23.017Z,92625.31
